createdAt,value
2022-08-31T00:00:06.234Z,53.45
2022-08-31T00:02:31.075Z,53.86
2022-08-31T00:04:33.776Z,54.05
2022-08-31T00:06:37.407Z,53.75
2022-08-31T00:08:39.966Z,53.86
2022-08-31T00:10:46.132Z,53.82
2022-08-31T00:12:49.955Z,53.96
2022-08-31T00:14:52.721Z,54.82
2022-08-31T00:16:55.621Z,56.66
2022-08-31T00:18:59.590Z,57.57
2022-08-31T00:21:02.413Z,56.75
2022-08-31T00:23:05.865Z,56.52
2022-08-31T00:25:09.480Z,55.93
2022-08-31T00:27:15.227Z,56.36
2022-08-31T00:29:17.837Z,56.18
2022-08-31T00:31:20.665Z,57.08
2022-08-31T00:33:24.336Z,57.96
2022-08-31T00:35:28.696Z,59.53
2022-08-31T00:37:31.363Z,59.01
2022-08-31T00:39:33.955Z,58.90
2022-08-31T00:41:38.615Z,59.32
2022-08-31T00:43:47.479Z,59.44
2022-08-31T00:45:50.275Z,60.30
2022-08-31T00:47:53.751Z,61.11
2022-08-31T00:49:56.433Z,60.18
2022-08-31T00:52:09.712Z,61.27
2022-08-31T00:54:15.668Z,61.36
2022-08-31T00:56:19.131Z,60.53
2022-08-31T00:58:22.392Z,60.11
2022-08-31T01:00:29.771Z,62.09
2022-08-31T01:02:32.424Z,62.54
2022-08-31T01:04:35.677Z,62.94
2022-08-31T01:06:38.448Z,63.50
2022-08-31T01:08:43.034Z,63.85
2022-08-31T01:10:47.059Z,64.18
2022-08-31T01:12:53.249Z,64.55
2022-08-31T01:14:56.623Z,65.27
2022-08-31T01:16:59.332Z,65.22
2022-08-31T01:19:04.484Z,65.22
2022-08-31T01:21:22.335Z,65.56
2022-08-31T01:23:29.350Z,65.05
2022-08-31T01:25:33.896Z,64.10
2022-08-31T01:27:38.036Z,62.09
2022-08-31T01:29:40.697Z,61.02
2022-08-31T01:31:45.254Z,60.59
2022-08-31T01:33:48.232Z,60.88
2022-08-31T01:35:50.813Z,61.26
2022-08-31T01:37:54.509Z,59.78
2022-08-31T01:39:59.147Z,61.03
2022-08-31T01:42:01.801Z,59.83
2022-08-31T01:44:04.445Z,60.23
2022-08-31T01:46:10.491Z,59.61
2022-08-31T01:48:13.799Z,60.01
2022-08-31T01:50:16.536Z,59.17
2022-08-31T01:52:19.251Z,60.92
2022-08-31T01:54:24.979Z,63.06
2022-08-31T01:56:31.960Z,64.72
2022-08-31T01:58:34.550Z,64.47
2022-08-31T02:00:37.801Z,66.32
2022-08-31T02:02:41.930Z,66.42
2022-08-31T02:04:45.792Z,66.82
2022-08-31T02:06:50.729Z,67.44
2022-08-31T02:08:53.503Z,67.70
2022-08-31T02:10:56.045Z,68.54
2022-08-31T02:13:00.071Z,69.45
2022-08-31T02:15:02.744Z,70.17
2022-08-31T02:17:05.557Z,70.77
2022-08-31T02:19:08.226Z,69.62
2022-08-31T02:21:12.465Z,70.60
2022-08-31T02:23:15.280Z,69.90
2022-08-31T02:25:18.706Z,69.76
2022-08-31T02:27:21.299Z,70.12
2022-08-31T02:29:25.277Z,70.53
2022-08-31T02:31:28.035Z,69.85
2022-08-31T02:33:30.705Z,69.97
2022-08-31T02:35:34.107Z,70.80
2022-08-31T02:37:39.711Z,71.26
2022-08-31T02:39:42.382Z,71.34
2022-08-31T02:41:45.091Z,71.25
2022-08-31T02:43:47.686Z,71.44
2022-08-31T02:45:53.666Z,71.75
2022-08-31T02:47:56.369Z,71.70
2022-08-31T02:49:59.414Z,70.99
2022-08-31T02:52:02.041Z,70.75
2022-08-31T02:54:04.709Z,70.72
2022-08-31T02:56:08.851Z,71.13
2022-08-31T02:58:13.228Z,72.00
2022-08-31T03:00:16.254Z,72.80
2022-08-31T03:02:20.415Z,72.75
2022-08-31T03:04:23.019Z,73.05
2022-08-31T03:06:25.637Z,72.31
2022-08-31T03:08:28.320Z,71.88
2022-08-31T03:10:33.800Z,72.38
2022-08-31T03:12:36.951Z,72.48
2022-08-31T03:14:39.567Z,72.67
2022-08-31T03:16:42.694Z,72.05
2022-08-31T03:18:48.715Z,72.18
2022-08-31T03:20:54.450Z,71.55
2022-08-31T03:22:57.330Z,72.39
2022-08-31T03:25:02.281Z,72.76
2022-08-31T03:27:05.084Z,73.99
2022-08-31T03:29:07.756Z,72.96
2022-08-31T03:31:11.003Z,74.59
2022-08-31T03:33:14.466Z,74.41
2022-08-31T03:35:19.183Z,73.85
2022-08-31T03:37:21.959Z,73.48
2022-08-31T03:39:24.561Z,73.75
2022-08-31T03:41:27.560Z,73.77
2022-08-31T03:43:30.228Z,73.37
2022-08-31T03:45:33.476Z,73.37
2022-08-31T03:47:37.122Z,74.15
2022-08-31T03:49:48.685Z,74.44
2022-08-31T03:51:52.754Z,75.01
2022-08-31T03:53:55.549Z,74.84
2022-08-31T03:56:02.029Z,74.81
2022-08-31T03:58:04.851Z,74.36
2022-08-31T04:00:13.217Z,73.78
2022-08-31T04:02:15.857Z,73.99
2022-08-31T04:04:18.511Z,73.57
2022-08-31T04:06:21.222Z,72.57
2022-08-31T04:08:25.756Z,73.67
2022-08-31T04:10:28.417Z,74.35
2022-08-31T04:12:31.058Z,73.44
2022-08-31T04:14:33.652Z,72.49
2022-08-31T04:16:37.308Z,72.98
2022-08-31T04:18:40.468Z,73.72
2022-08-31T04:20:43.060Z,73.26
2022-08-31T04:22:45.682Z,74.32
2022-08-31T04:24:49.626Z,74.57
2022-08-31T04:26:53.604Z,74.81
2022-08-31T04:28:57.355Z,74.25
2022-08-31T04:30:59.968Z,74.00
2022-08-31T04:33:04.719Z,74.89
2022-08-31T04:35:08.457Z,75.17
2022-08-31T04:37:14.384Z,75.01
2022-08-31T04:39:16.966Z,74.81
2022-08-31T04:41:22.768Z,75.06
2022-08-31T04:43:25.358Z,75.20
2022-08-31T04:45:28.212Z,74.87
2022-08-31T04:47:31.841Z,74.72
2022-08-31T04:49:34.522Z,75.29
2022-08-31T04:51:39.306Z,75.44
2022-08-31T04:53:42.910Z,75.65
2022-08-31T04:55:45.453Z,75.63
2022-08-31T04:57:49.365Z,75.16
2022-08-31T04:59:53.485Z,75.13
2022-08-31T05:01:56.309Z,75.60
2022-08-31T05:03:59.435Z,73.87
2022-08-31T05:06:02.034Z,75.86
2022-08-31T05:08:05.198Z,75.72
2022-08-31T05:10:08.402Z,75.94
2022-08-31T05:12:11.005Z,75.67
2022-08-31T05:14:15.017Z,74.69
2022-08-31T05:16:18.647Z,75.50
2022-08-31T05:18:21.263Z,76.95
2022-08-31T05:20:23.899Z,76.82
2022-08-31T05:22:26.521Z,76.80
2022-08-31T05:24:30.201Z,75.51
2022-08-31T05:26:35.853Z,76.61
2022-08-31T05:28:40.563Z,77.06
2022-08-31T05:30:45.871Z,77.31
2022-08-31T05:32:48.556Z,77.05
2022-08-31T05:34:52.077Z,77.22
2022-08-31T05:36:57.113Z,74.21
2022-08-31T05:39:01.473Z,76.20
2022-08-31T05:41:06.071Z,75.12
2022-08-31T05:43:08.639Z,73.80
2022-08-31T05:45:11.601Z,73.95
2022-08-31T05:47:15.554Z,74.11
2022-08-31T05:49:18.108Z,73.57
2022-08-31T05:51:20.858Z,74.58
2022-08-31T05:53:23.427Z,74.94
2022-08-31T05:55:25.999Z,74.10
2022-08-31T05:57:28.645Z,75.15
2022-08-31T05:59:32.072Z,73.59
2022-08-31T06:01:37.658Z,74.71
2022-08-31T06:03:42.064Z,75.52
2022-08-31T06:05:45.746Z,75.36
2022-08-31T06:07:51.376Z,75.17
2022-08-31T06:09:53.980Z,75.13
2022-08-31T06:11:58.886Z,74.68
2022-08-31T06:14:05.582Z,74.53
2022-08-31T06:16:09.760Z,74.86
2022-08-31T06:18:12.541Z,75.16
2022-08-31T06:20:18.021Z,75.65
2022-08-31T06:22:20.870Z,75.75
2022-08-31T06:24:23.435Z,75.77
2022-08-31T06:26:28.914Z,74.89
2022-08-31T06:28:32.636Z,75.23
2022-08-31T06:30:47.806Z,75.06
2022-08-31T06:32:58.868Z,75.29
2022-08-31T06:35:01.951Z,75.77
2022-08-31T06:37:06.782Z,75.10
2022-08-31T06:39:12.361Z,75.72
2022-08-31T06:41:16.954Z,75.84
2022-08-31T06:43:20.014Z,76.29
2022-08-31T06:45:22.741Z,76.43
2022-08-31T06:47:26.079Z,76.28
2022-08-31T06:49:28.717Z,76.18
2022-08-31T06:51:36.414Z,74.89
2022-08-31T06:53:42.451Z,75.36
2022-08-31T06:55:45.966Z,76.22
2022-08-31T06:57:48.639Z,76.65
2022-08-31T06:59:53.639Z,75.96
2022-08-31T07:01:56.329Z,75.66
2022-08-31T07:04:01.072Z,75.78
2022-08-31T07:06:09.945Z,75.24
2022-08-31T07:08:12.532Z,76.22
2022-08-31T07:10:18.759Z,76.60
2022-08-31T07:12:22.152Z,75.79
2022-08-31T07:14:26.870Z,76.47
2022-08-31T07:16:31.299Z,76.55
2022-08-31T07:18:34.120Z,74.78
2022-08-31T07:20:36.731Z,74.27
2022-08-31T07:22:39.295Z,75.08
2022-08-31T07:24:41.871Z,75.45
2022-08-31T07:26:49.825Z,76.42
2022-08-31T07:28:53.574Z,75.95
2022-08-31T07:30:56.348Z,76.13
2022-08-31T07:32:58.996Z,74.99
2022-08-31T07:35:01.581Z,75.48
2022-08-31T07:37:24.180Z,76.28
2022-08-31T07:39:45.145Z,76.58
2022-08-31T07:42:06.753Z,76.52
2022-08-31T07:44:10.995Z,76.21
2022-08-31T07:46:14.113Z,75.91
2022-08-31T07:48:17.290Z,76.29
2022-08-31T07:50:21.199Z,76.75
2022-08-31T07:52:26.459Z,77.56
2022-08-31T07:54:29.178Z,77.46
2022-08-31T07:56:34.802Z,77.35
2022-08-31T07:58:40.198Z,76.10
2022-08-31T08:00:43.265Z,75.02
2022-08-31T08:02:52.894Z,75.89
2022-08-31T08:04:55.976Z,75.26
2022-08-31T08:07:05.836Z,75.58
2022-08-31T08:09:24.596Z,75.72
2022-08-31T08:11:27.940Z,75.56
2022-08-31T08:13:31.941Z,76.04
2022-08-31T08:15:37.348Z,76.11
2022-08-31T08:17:43.071Z,75.81
2022-08-31T08:19:45.661Z,74.19
2022-08-31T08:21:48.874Z,73.74
2022-08-31T08:23:54.009Z,74.45
2022-08-31T08:26:01.154Z,73.94
2022-08-31T08:28:22.601Z,74.77
2022-08-31T08:30:26.875Z,73.65
2022-08-31T08:32:31.771Z,73.93
2022-08-31T08:34:34.389Z,74.65
2022-08-31T08:36:40.323Z,74.50
2022-08-31T08:38:43.953Z,75.57
2022-08-31T08:40:47.431Z,75.92
2022-08-31T08:42:50.241Z,74.60
2022-08-31T08:44:52.874Z,75.21
2022-08-31T08:46:58.433Z,75.91
2022-08-31T08:49:10.112Z,76.33
2022-08-31T08:51:16.609Z,76.50
2022-08-31T08:53:23.752Z,77.00
2022-08-31T08:55:34.943Z,77.23
2022-08-31T08:57:41.220Z,77.32
2022-08-31T08:59:45.247Z,76.49
2022-08-31T09:01:50.540Z,76.55
2022-08-31T09:04:01.139Z,74.91
2022-08-31T09:06:14.267Z,75.35
2022-08-31T09:08:32.248Z,75.14
2022-08-31T09:10:41.898Z,75.51
2022-08-31T09:12:51.676Z,75.01
2022-08-31T09:15:15.420Z,75.67
2022-08-31T09:17:34.369Z,75.34
2022-08-31T09:19:50.957Z,75.52
2022-08-31T09:21:57.215Z,74.79
2022-08-31T09:24:04.016Z,72.57
2022-08-31T09:26:08.544Z,74.52
2022-08-31T09:28:16.362Z,75.07
2022-08-31T09:30:52.149Z,75.78
2022-08-31T09:32:57.971Z,75.34
2022-08-31T09:35:03.616Z,74.74
2022-08-31T09:37:17.170Z,75.32
2022-08-31T09:39:22.740Z,75.08
2022-08-31T09:41:35.492Z,76.07
2022-08-31T09:43:38.679Z,74.63
2022-08-31T09:45:54.798Z,73.24
2022-08-31T09:48:01.262Z,73.43
2022-08-31T09:50:04.400Z,71.30
2022-08-31T09:52:46.743Z,73.59
2022-08-31T09:55:12.575Z,73.68
2022-08-31T09:57:15.232Z,73.94
2022-08-31T09:59:30.805Z,73.43
2022-08-31T10:01:44.080Z,73.10
2022-08-31T10:03:47.927Z,72.22
2022-08-31T10:05:54.577Z,71.64
2022-08-31T10:08:04.920Z,71.44
2022-08-31T10:10:16.026Z,71.92
2022-08-31T10:12:42.228Z,73.69
2022-08-31T10:14:52.030Z,73.97
2022-08-31T10:17:02.749Z,73.44
2022-08-31T10:19:09.681Z,72.33
2022-08-31T10:21:21.204Z,72.33
2022-08-31T10:23:35.715Z,70.42
2022-08-31T10:25:46.796Z,71.74
2022-08-31T10:27:53.081Z,71.00
2022-08-31T10:30:00.602Z,71.04
2022-08-31T10:32:21.152Z,71.47
2022-08-31T10:34:43.868Z,71.61
2022-08-31T10:36:50.107Z,71.62
2022-08-31T10:38:57.752Z,71.84
2022-08-31T10:41:15.852Z,71.37
2022-08-31T10:43:21.758Z,70.40
2022-08-31T10:45:25.299Z,70.27
2022-08-31T10:47:41.532Z,71.59
2022-08-31T10:49:44.111Z,72.22
2022-08-31T10:51:55.934Z,69.05
2022-08-31T10:54:13.241Z,70.32
2022-08-31T10:56:24.061Z,71.31
2022-08-31T10:58:37.002Z,71.87
2022-08-31T11:00:51.930Z,71.24
2022-08-31T11:03:05.887Z,69.91
2022-08-31T11:05:27.035Z,69.06
2022-08-31T11:07:42.124Z,67.01
2022-08-31T11:09:56.322Z,69.06
2022-08-31T11:12:06.989Z,69.70
2022-08-31T11:14:45.176Z,70.14
2022-08-31T11:17:04.499Z,69.32
2022-08-31T11:19:27.256Z,68.68
2022-08-31T11:21:46.654Z,69.09
2022-08-31T11:24:02.931Z,68.38
2022-08-31T11:26:34.829Z,68.54
2022-08-31T11:28:39.885Z,68.90
2022-08-31T11:30:51.036Z,68.39
2022-08-31T11:32:57.591Z,67.90
2022-08-31T11:35:03.641Z,68.83
2022-08-31T11:37:07.401Z,69.11
2022-08-31T11:39:36.912Z,68.76
2022-08-31T11:41:47.501Z,68.52
2022-08-31T11:43:52.232Z,68.18
2022-08-31T11:45:56.344Z,68.73
2022-08-31T11:47:59.434Z,68.83
2022-08-31T11:50:05.454Z,69.31
2022-08-31T11:52:29.569Z,68.72
2022-08-31T11:55:06.677Z,68.10
2022-08-31T11:57:15.797Z,68.21
2022-08-31T11:59:26.542Z,68.87
2022-08-31T12:01:36.592Z,67.88
2022-08-31T12:04:03.369Z,68.10
2022-08-31T12:06:09.068Z,68.62
2022-08-31T12:08:15.189Z,68.39
2022-08-31T12:10:35.274Z,68.79
2022-08-31T12:13:07.339Z,68.52
2022-08-31T12:15:15.480Z,67.16
2022-08-31T12:17:24.523Z,67.48
2022-08-31T12:19:59.109Z,67.07
2022-08-31T12:22:32.217Z,66.45
2022-08-31T12:24:45.667Z,67.32
2022-08-31T12:27:03.266Z,67.56
2022-08-31T12:29:22.380Z,67.23
2022-08-31T12:31:25.385Z,67.42
2022-08-31T12:33:30.663Z,66.78
2022-08-31T12:35:34.235Z,67.02
2022-08-31T12:37:39.645Z,66.99
2022-08-31T12:39:43.539Z,66.15
2022-08-31T12:41:50.863Z,66.06
2022-08-31T12:43:53.522Z,63.99
2022-08-31T12:46:21.092Z,64.56
2022-08-31T12:48:39.342Z,64.45
2022-08-31T12:50:48.331Z,64.67
2022-08-31T12:53:15.306Z,64.45
2022-08-31T12:55:38.651Z,62.89
2022-08-31T12:57:51.499Z,61.69
2022-08-31T13:00:04.221Z,59.92
2022-08-31T13:02:12.215Z,59.67
2022-08-31T13:04:16.625Z,59.95
2022-08-31T13:06:25.508Z,60.28
2022-08-31T13:08:28.433Z,60.76
2022-08-31T13:10:34.645Z,60.40
2022-08-31T13:12:38.177Z,60.45
2022-08-31T13:14:43.477Z,60.49
2022-08-31T13:16:49.350Z,59.80
2022-08-31T13:19:02.894Z,58.61
2022-08-31T13:21:06.695Z,59.38
2022-08-31T13:23:11.359Z,60.55
2022-08-31T13:25:19.293Z,60.92
2022-08-31T13:27:23.958Z,60.66
2022-08-31T13:29:26.589Z,61.24
2022-08-31T13:31:31.572Z,61.51
2022-08-31T13:33:37.171Z,61.88
2022-08-31T13:35:49.686Z,62.47
2022-08-31T13:38:04.881Z,62.79
2022-08-31T13:40:11.950Z,62.71
2022-08-31T13:42:35.442Z,61.97
2022-08-31T13:44:46.834Z,62.46
2022-08-31T13:47:01.177Z,62.54
2022-08-31T13:49:08.139Z,62.55
2022-08-31T13:51:19.573Z,62.86
2022-08-31T13:53:39.369Z,63.40
2022-08-31T13:55:44.004Z,63.34
2022-08-31T13:57:59.692Z,62.94
2022-08-31T14:00:29.571Z,62.51
2022-08-31T14:02:37.189Z,63.04
2022-08-31T14:05:00.460Z,63.35
2022-08-31T14:07:04.660Z,63.55
2022-08-31T14:09:17.371Z,64.02
2022-08-31T14:11:21.780Z,63.85
2022-08-31T14:13:27.032Z,63.64
2022-08-31T14:15:36.563Z,64.04
2022-08-31T14:17:42.817Z,63.98
2022-08-31T14:19:46.078Z,64.10
2022-08-31T14:21:50.148Z,64.19
2022-08-31T14:23:58.972Z,63.69
2022-08-31T14:26:04.058Z,62.87
2022-08-31T14:28:09.058Z,62.91
2022-08-31T14:30:12.255Z,62.79
2022-08-31T14:32:14.899Z,62.20
2022-08-31T14:34:23.081Z,60.96
2022-08-31T14:36:27.867Z,61.58
2022-08-31T14:38:32.483Z,61.42
2022-08-31T14:40:37.388Z,60.47
2022-08-31T14:42:40.531Z,61.36
2022-08-31T14:44:45.971Z,60.15
2022-08-31T14:46:48.552Z,58.94
2022-08-31T14:48:51.241Z,59.91
2022-08-31T14:50:53.819Z,58.89
2022-08-31T14:52:57.484Z,57.23
2022-08-31T14:55:00.963Z,57.71
2022-08-31T14:57:09.592Z,57.49
2022-08-31T14:59:13.909Z,57.42
2022-08-31T15:01:17.448Z,56.98
2022-08-31T15:03:24.358Z,57.40
2022-08-31T15:05:26.980Z,57.71
2022-08-31T15:07:32.052Z,58.59
2022-08-31T15:09:36.001Z,58.56
2022-08-31T15:11:39.853Z,58.45
2022-08-31T15:13:43.883Z,58.22
2022-08-31T15:15:49.373Z,58.14
2022-08-31T15:17:52.815Z,57.69
2022-08-31T15:19:55.826Z,57.44
2022-08-31T15:22:02.980Z,56.13
2022-08-31T15:24:06.083Z,55.54
2022-08-31T15:26:12.388Z,55.61
2022-08-31T15:28:15.336Z,55.51
2022-08-31T15:30:20.315Z,55.72
2022-08-31T15:32:22.994Z,56.14
2022-08-31T15:34:29.480Z,55.51
2022-08-31T15:36:32.718Z,54.83
2022-08-31T15:38:36.737Z,54.99
2022-08-31T15:40:39.836Z,54.47
2022-08-31T15:42:43.612Z,55.37
2022-08-31T15:44:56.805Z,55.89
2022-08-31T15:47:18.340Z,55.83
2022-08-31T15:49:20.932Z,55.16
2022-08-31T15:51:27.846Z,56.04
2022-08-31T15:53:32.070Z,55.86
2022-08-31T15:55:35.244Z,54.69
2022-08-31T15:57:39.047Z,55.23
2022-08-31T15:59:43.805Z,55.56
2022-08-31T16:01:46.596Z,54.91
2022-08-31T16:03:53.577Z,54.87
2022-08-31T16:05:56.336Z,54.90
2022-08-31T16:07:59.076Z,55.69
2022-08-31T16:10:01.819Z,56.03
2022-08-31T16:12:05.423Z,55.71
2022-08-31T16:14:11.256Z,56.43
2022-08-31T16:16:15.222Z,56.14
2022-08-31T16:18:18.562Z,55.99
2022-08-31T16:20:23.400Z,56.14
2022-08-31T16:22:30.466Z,56.89
2022-08-31T16:24:37.490Z,56.67
2022-08-31T16:26:43.315Z,57.31
2022-08-31T16:28:46.467Z,54.55
2022-08-31T16:30:49.431Z,53.11
2022-08-31T16:32:54.118Z,51.45
2022-08-31T16:34:57.074Z,51.12
2022-08-31T16:37:07.181Z,50.76
2022-08-31T16:39:10.193Z,50.11
2022-08-31T16:41:13.737Z,51.33
2022-08-31T16:43:16.448Z,51.66
2022-08-31T16:45:19.166Z,51.31
2022-08-31T16:47:21.948Z,50.68
2022-08-31T16:49:36.705Z,50.88
2022-08-31T16:51:39.680Z,50.67
2022-08-31T16:53:47.591Z,51.20
2022-08-31T16:55:50.243Z,52.21
2022-08-31T16:57:52.976Z,52.33
2022-08-31T16:59:56.954Z,52.57
2022-08-31T17:01:59.675Z,52.73
2022-08-31T17:04:04.767Z,54.00
2022-08-31T17:06:07.835Z,55.76
2022-08-31T17:08:14.790Z,56.27
2022-08-31T17:10:19.126Z,54.88
2022-08-31T17:12:26.180Z,55.70
2022-08-31T17:14:33.926Z,54.06
2022-08-31T17:16:38.722Z,51.85
2022-08-31T17:18:44.291Z,53.34
2022-08-31T17:20:46.977Z,55.57
2022-08-31T17:22:50.142Z,56.01
2022-08-31T17:24:57.859Z,55.72
2022-08-31T17:27:04.663Z,54.08
2022-08-31T17:29:08.084Z,54.77
2022-08-31T17:31:11.293Z,56.78
2022-08-31T17:33:14.207Z,57.31
2022-08-31T17:35:18.529Z,55.88
2022-08-31T17:37:25.192Z,56.48
2022-08-31T17:39:29.029Z,57.46
2022-08-31T17:41:31.700Z,58.18
2022-08-31T17:43:38.281Z,58.67
2022-08-31T17:45:40.990Z,58.69
2022-08-31T17:47:43.679Z,59.45
2022-08-31T17:49:46.986Z,59.41
2022-08-31T17:51:51.191Z,60.30
2022-08-31T17:53:55.367Z,59.30
2022-08-31T17:55:58.093Z,59.76
2022-08-31T17:58:00.764Z,60.75
2022-08-31T18:00:06.773Z,61.01
2022-08-31T18:02:12.275Z,62.26
2022-08-31T18:04:15.813Z,62.64
2022-08-31T18:06:19.223Z,63.12
2022-08-31T18:08:24.501Z,62.84
2022-08-31T18:10:27.714Z,63.45
2022-08-31T18:12:30.769Z,63.33
2022-08-31T18:14:34.679Z,63.45
2022-08-31T18:16:39.501Z,63.49
2022-08-31T18:18:46.114Z,63.75
2022-08-31T18:20:48.823Z,64.31
2022-08-31T18:22:52.685Z,64.63
2022-08-31T18:24:55.885Z,64.96
2022-08-31T18:26:59.221Z,65.40
2022-08-31T18:29:02.077Z,64.99
2022-08-31T18:31:07.636Z,65.78
2022-08-31T18:33:14.924Z,65.72
2022-08-31T18:35:18.016Z,65.03
2022-08-31T18:37:22.242Z,65.15
2022-08-31T18:39:50.039Z,65.26
2022-08-31T18:42:07.548Z,64.86
2022-08-31T18:44:28.599Z,65.21
2022-08-31T18:46:31.311Z,65.51
2022-08-31T18:48:35.553Z,65.91
2022-08-31T18:50:38.607Z,64.82
2022-08-31T18:52:44.135Z,65.75
2022-08-31T18:54:53.116Z,66.89
2022-08-31T18:56:55.942Z,67.10
2022-08-31T18:58:59.578Z,67.48
2022-08-31T19:01:02.610Z,67.30
2022-08-31T19:03:05.943Z,67.54
2022-08-31T19:05:12.728Z,66.91
2022-08-31T19:07:15.929Z,66.53
2022-08-31T19:09:18.939Z,66.51
2022-08-31T19:11:21.944Z,67.11
2022-08-31T19:13:26.257Z,67.90
2022-08-31T19:15:35.398Z,68.13
2022-08-31T19:17:40.280Z,67.75
2022-08-31T19:19:43.008Z,68.06
2022-08-31T19:21:47.115Z,68.31
2022-08-31T19:23:51.463Z,68.03
2022-08-31T19:25:54.806Z,68.60
2022-08-31T19:27:57.749Z,68.18
2022-08-31T19:30:00.524Z,68.65
2022-08-31T19:32:05.751Z,68.80
2022-08-31T19:34:08.897Z,68.41
2022-08-31T19:36:12.653Z,68.75
2022-08-31T19:38:16.672Z,68.56
2022-08-31T19:40:35.530Z,68.36
2022-08-31T19:42:40.593Z,68.63
2022-08-31T19:47:25.519Z,69.03
2022-08-31T19:49:31.097Z,68.83
2022-08-31T19:51:36.029Z,68.74
2022-08-31T19:53:42.623Z,68.55
2022-08-31T19:55:50.428Z,69.06
2022-08-31T19:57:54.180Z,69.08
2022-08-31T19:59:57.028Z,68.85
2022-08-31T20:02:02.856Z,68.89
2022-08-31T20:04:15.868Z,69.20
2022-08-31T20:06:22.349Z,69.01
2022-08-31T20:08:25.041Z,69.42
2022-08-31T20:10:30.087Z,69.67
2022-08-31T20:12:33.220Z,69.51
2022-08-31T20:14:36.331Z,69.87
2022-08-31T20:16:41.766Z,69.58
2022-08-31T20:18:47.053Z,69.69
2022-08-31T20:20:52.944Z,69.53
2022-08-31T20:22:55.724Z,69.44
2022-08-31T20:25:01.010Z,69.70
2022-08-31T20:27:10.080Z,69.71
2022-08-31T20:29:13.697Z,69.91
2022-08-31T20:31:17.072Z,69.68
2022-08-31T20:33:20.451Z,69.59
2022-08-31T20:35:23.231Z,69.64
2022-08-31T20:37:27.571Z,69.93
2022-08-31T20:39:32.985Z,69.86
2022-08-31T20:41:38.694Z,69.60
2022-08-31T20:43:44.718Z,69.83
2022-08-31T20:45:50.332Z,70.07
2022-08-31T20:48:10.711Z,70.31
2022-08-31T20:50:14.192Z,70.76
2022-08-31T20:52:17.856Z,70.75
2022-08-31T20:54:20.461Z,70.76
2022-08-31T20:56:26.195Z,70.54
2022-08-31T20:58:32.877Z,70.82
2022-08-31T21:00:43.496Z,70.57
2022-08-31T21:02:47.010Z,70.83
2022-08-31T21:04:50.132Z,70.73
2022-08-31T21:06:53.257Z,70.29
2022-08-31T21:08:56.770Z,69.88
2022-08-31T21:10:59.464Z,70.00
2022-08-31T21:13:02.454Z,70.08
2022-08-31T21:15:12.302Z,70.09
2022-08-31T21:17:16.385Z,70.61
2022-08-31T21:19:22.495Z,70.23
2022-08-31T21:21:26.356Z,70.19
2022-08-31T21:23:30.820Z,70.02
2022-08-31T21:25:34.745Z,70.29
2022-08-31T21:27:39.736Z,70.54
2022-08-31T21:29:46.793Z,70.35
2022-08-31T21:31:56.862Z,70.09
2022-08-31T21:34:06.804Z,70.18
2022-08-31T21:36:13.279Z,69.71
2022-08-31T21:38:15.877Z,70.06
2022-08-31T21:40:18.859Z,70.21
2022-08-31T21:42:21.573Z,70.28
2022-08-31T21:44:24.451Z,70.70
2022-08-31T21:46:29.681Z,70.28
2022-08-31T21:48:34.175Z,70.51
2022-08-31T21:50:38.178Z,70.69
2022-08-31T21:52:40.739Z,70.20
2022-08-31T21:54:44.755Z,69.99
2022-08-31T21:56:51.773Z,69.62
2022-08-31T21:58:54.409Z,68.82
2022-08-31T22:00:57.406Z,68.86
2022-08-31T22:03:00.084Z,69.33
2022-08-31T22:05:08.554Z,69.91
2022-08-31T22:07:14.043Z,69.93
2022-08-31T22:09:19.089Z,69.86
2022-08-31T22:11:24.124Z,70.21
2022-08-31T22:13:27.299Z,69.47
2022-08-31T22:15:35.958Z,69.99
2022-08-31T22:18:01.988Z,70.16
2022-08-31T22:20:02.550Z,70.30
2022-08-31T22:22:08.012Z,70.27
2022-08-31T22:24:26.568Z,70.57
2022-08-31T22:26:33.444Z,71.04
2022-08-31T22:28:36.382Z,71.19
2022-08-31T22:30:39.333Z,71.24
2022-08-31T22:32:41.935Z,71.23
2022-08-31T22:34:46.033Z,71.36
2022-08-31T22:36:50.677Z,71.15
2022-08-31T22:38:53.305Z,71.17
2022-08-31T22:40:58.001Z,71.22
2022-08-31T22:43:00.559Z,70.70
2022-08-31T22:45:09.291Z,70.44
2022-08-31T22:47:11.916Z,70.56
2022-08-31T22:49:15.829Z,70.95
2022-08-31T22:51:19.366Z,71.20
2022-08-31T22:53:22.046Z,71.35
2022-08-31T22:55:24.738Z,71.57
2022-08-31T22:57:28.687Z,71.50
2022-08-31T22:59:31.269Z,71.50
2022-08-31T23:01:36.399Z,71.07
2022-08-31T23:03:39.043Z,71.34
2022-08-31T23:05:44.176Z,70.79
2022-08-31T23:07:47.583Z,69.76
2022-08-31T23:09:50.458Z,68.89
2022-08-31T23:11:53.062Z,69.51
2022-08-31T23:14:04.207Z,69.79
2022-08-31T23:16:11.076Z,70.46
2022-08-31T23:18:16.510Z,70.94
2022-08-31T23:20:23.821Z,70.46
2022-08-31T23:22:27.673Z,70.44
2022-08-31T23:24:33.948Z,70.85
2022-08-31T23:26:37.766Z,70.89
2022-08-31T23:28:41.020Z,71.07
2022-08-31T23:30:45.363Z,71.28
2022-08-31T23:32:48.466Z,70.97
2022-08-31T23:34:52.362Z,71.31
2022-08-31T23:36:55.569Z,70.98
2022-08-31T23:39:03.821Z,70.99
2022-08-31T23:41:06.699Z,70.39
2022-08-31T23:43:18.116Z,70.20
2022-08-31T23:45:21.023Z,70.26
2022-08-31T23:47:29.659Z,70.35
2022-08-31T23:49:32.231Z,70.82
2022-08-31T23:51:38.263Z,70.78
2022-08-31T23:53:40.824Z,70.68
2022-08-31T23:55:45.019Z,71.44
2022-08-31T23:57:48.446Z,71.54
2022-08-31T23:59:52.939Z,71.42
